FJI911 NFFN-YSSY
Flight info
| Callsign | FJI911 |
|---|---|
| Flight time | N/A |
| Altitude | 40000 |
| Route | ECHO MI DCT VIBEX G224 NF B450 LHI H258 RIKNI N774 MARLN |
| Aircraft | A359/H-SDE2E3GHIJ3J4J5LM1ORWXY/LB1D1 |
Departure
| Time | 2026-04-28 03:33 |
|---|---|
| Airport | Nadi International Airport (NFFN) |
Arrival
| Time | N/A |
|---|---|
| Airport | Sydney Kingsford Smith International Airport (YSSY) |
| Time | Latitude | Longitude | Altitude | Speed | Heading |
|---|---|---|---|---|---|
| 2026-04-28 02:49 | -17.75185 | 177.45006 | 49 ft | 0 kts | 104° |
| 2026-04-28 03:20 | -17.75183 | 177.44996 | 53 ft | 4 kts | 103° |
| 2026-04-28 03:21 | -17.75178 | 177.44971 | 50 ft | 3 kts | 103° |
| 2026-04-28 03:21 | -17.75169 | 177.44950 | 46 ft | 4 kts | 159° |
| 2026-04-28 03:21 | -17.75145 | 177.44951 | 47 ft | 4 kts | 197° |
| 2026-04-28 03:21 | -17.75136 | 177.44954 | 49 ft | 0 kts | 194° |
| 2026-04-28 03:25 | -17.75138 | 177.44953 | 53 ft | 0 kts | 198° |
| 2026-04-28 03:25 | -17.75141 | 177.44950 | 46 ft | 1 kts | 215° |
| 2026-04-28 03:25 | -17.75149 | 177.44886 | 53 ft | 14 kts | 272° |
| 2026-04-28 03:25 | -17.75132 | 177.44790 | 51 ft | 14 kts | 283° |
| 2026-04-28 03:26 | -17.75113 | 177.44687 | 48 ft | 15 kts | 266° |
| 2026-04-28 03:26 | -17.75172 | 177.44598 | 46 ft | 16 kts | 219° |
| 2026-04-28 03:26 | -17.75267 | 177.44520 | 48 ft | 18 kts | 217° |
| 2026-04-28 03:26 | -17.75374 | 177.44434 | 46 ft | 20 kts | 217° |
| 2026-04-28 03:27 | -17.75493 | 177.44340 | 49 ft | 22 kts | 217° |
| 2026-04-28 03:27 | -17.75621 | 177.44237 | 46 ft | 24 kts | 217° |
| 2026-04-28 03:27 | -17.75759 | 177.44126 | 47 ft | 26 kts | 218° |
| 2026-04-28 03:27 | -17.75905 | 177.44007 | 47 ft | 27 kts | 218° |
| 2026-04-28 03:28 | -17.76061 | 177.43884 | 48 ft | 29 kts | 217° |
| 2026-04-28 03:28 | -17.76220 | 177.43756 | 46 ft | 30 kts | 217° |
| 2026-04-28 03:28 | -17.76379 | 177.43628 | 49 ft | 26 kts | 217° |
| 2026-04-28 03:28 | -17.76521 | 177.43513 | 46 ft | 26 kts | 218° |
| 2026-04-28 03:29 | -17.76670 | 177.43392 | 47 ft | 28 kts | 217° |
| 2026-04-28 03:29 | -17.76826 | 177.43267 | 48 ft | 28 kts | 217° |
| 2026-04-28 03:29 | -17.76938 | 177.43177 | 49 ft | 16 kts | 217° |
| 2026-04-28 03:29 | -17.77031 | 177.43102 | 51 ft | 18 kts | 218° |
| 2026-04-28 03:30 | -17.77135 | 177.43018 | 50 ft | 20 kts | 217° |
| 2026-04-28 03:30 | -17.77231 | 177.42925 | 47 ft | 15 kts | 237° |
| 2026-04-28 03:30 | -17.77276 | 177.42860 | 46 ft | 9 kts | 190° |
| 2026-04-28 03:30 | -17.77287 | 177.42883 | 49 ft | 2 kts | 77° |
| 2026-04-28 03:31 | -17.77274 | 177.42904 | 50 ft | 4 kts | 52° |
| 2026-04-28 03:31 | -17.77256 | 177.42921 | 49 ft | 0 kts | 40° |
| 2026-04-28 03:32 | -17.77234 | 177.42940 | 46 ft | 15 kts | 40° |
| 2026-04-28 03:32 | -17.77004 | 177.43125 | 49 ft | 76 kts | 38° |
| 2026-04-28 03:32 | -17.76407 | 177.43602 | 50 ft | 138 kts | 37° |
| 2026-04-28 03:32 | -17.75549 | 177.44290 | 450 ft | 157 kts | 35° |
| 2026-04-28 03:33 | -17.74590 | 177.45024 | 800 ft | 180 kts | 36° |
| 2026-04-28 03:33 | -17.73439 | 177.45467 | 1560 ft | 185 kts | 8° |
| 2026-04-28 03:33 | -17.72143 | 177.45174 | 2034 ft | 199 kts | 330° |
| 2026-04-28 03:33 | -17.71198 | 177.44101 | 2542 ft | 208 kts | 294° |
| 2026-04-28 03:34 | -17.70985 | 177.42531 | 2747 ft | 236 kts | 260° |
| 2026-04-28 03:34 | -17.71751 | 177.40949 | 3007 ft | 257 kts | 222° |
| 2026-04-28 03:34 | -17.73345 | 177.40124 | 3600 ft | 261 kts | 187° |
| 2026-04-28 03:34 | -17.75172 | 177.39872 | 4228 ft | 270 kts | 188° |
| 2026-04-28 03:35 | -17.77018 | 177.39392 | 4941 ft | 277 kts | 195° |
| 2026-04-28 03:35 | -17.78835 | 177.38679 | 5693 ft | 281 kts | 201° |
| 2026-04-28 03:35 | -17.80616 | 177.37826 | 6492 ft | 283 kts | 204° |
| 2026-04-28 03:35 | -17.82387 | 177.36891 | 7224 ft | 287 kts | 205° |
| 2026-04-28 03:36 | -17.84158 | 177.35908 | 8019 ft | 288 kts | 207° |
| 2026-04-28 03:36 | -17.85922 | 177.34904 | 8859 ft | 290 kts | 207° |
| 2026-04-28 03:36 | -17.87698 | 177.33877 | 9700 ft | 293 kts | 207° |
| 2026-04-28 03:36 | -17.89481 | 177.32809 | 10347 ft | 301 kts | 211° |
| 2026-04-28 03:37 | -17.91214 | 177.31454 | 10687 ft | 321 kts | 219° |
| 2026-04-28 03:37 | -17.92919 | 177.29828 | 10984 ft | 340 kts | 223° |
| 2026-04-28 03:37 | -17.94609 | 177.28051 | 11283 ft | 357 kts | 225° |
| 2026-04-28 03:37 | -17.96369 | 177.26135 | 11610 ft | 370 kts | 226° |
| 2026-04-28 03:38 | -17.98156 | 177.24190 | 12131 ft | 376 kts | 225° |
| 2026-04-28 03:38 | -18.00015 | 177.22193 | 12713 ft | 381 kts | 225° |
| 2026-04-28 03:38 | -18.01890 | 177.20207 | 13305 ft | 384 kts | 225° |
| 2026-04-28 03:38 | -18.03790 | 177.18217 | 13864 ft | 388 kts | 225° |
| 2026-04-28 03:39 | -18.05716 | 177.16212 | 14370 ft | 391 kts | 225° |
| 2026-04-28 03:39 | -18.07658 | 177.14196 | 14864 ft | 395 kts | 225° |
| 2026-04-28 03:39 | -18.09618 | 177.12162 | 15373 ft | 398 kts | 225° |
| 2026-04-28 03:39 | -18.11596 | 177.10110 | 15866 ft | 401 kts | 225° |
| 2026-04-28 03:40 | -18.13588 | 177.08040 | 16369 ft | 404 kts | 225° |
| 2026-04-28 03:40 | -18.15594 | 177.05955 | 16854 ft | 408 kts | 225° |
| 2026-04-28 03:40 | -18.17621 | 177.03845 | 17357 ft | 411 kts | 225° |
| 2026-04-28 03:40 | -18.19660 | 177.01722 | 17818 ft | 415 kts | 226° |
| 2026-04-28 03:41 | -18.21718 | 176.99579 | 18311 ft | 417 kts | 226° |
| 2026-04-28 03:41 | -18.23829 | 176.97456 | 18700 ft | 422 kts | 222° |
| 2026-04-28 03:41 | -18.26130 | 176.95532 | 19159 ft | 424 kts | 218° |
| 2026-04-28 03:41 | -18.28510 | 176.93687 | 19582 ft | 427 kts | 217° |
| 2026-04-28 03:42 | -18.30940 | 176.91879 | 20042 ft | 429 kts | 216° |
| 2026-04-28 03:42 | -18.33404 | 176.90084 | 20469 ft | 431 kts | 216° |
| 2026-04-28 03:42 | -18.35879 | 176.88293 | 20899 ft | 434 kts | 216° |
| 2026-04-28 03:42 | -18.38379 | 176.86483 | 21338 ft | 437 kts | 216° |
| 2026-04-28 03:43 | -18.40883 | 176.84665 | 21785 ft | 439 kts | 216° |
| 2026-04-28 03:43 | -18.43408 | 176.82826 | 22225 ft | 442 kts | 217° |
| 2026-04-28 03:43 | -18.45940 | 176.80976 | 22654 ft | 445 kts | 217° |
| 2026-04-28 03:43 | -18.48489 | 176.79109 | 23074 ft | 448 kts | 217° |
| 2026-04-28 03:44 | -18.51051 | 176.77232 | 23490 ft | 451 kts | 217° |
| 2026-04-28 03:44 | -18.53633 | 176.75338 | 23831 ft | 453 kts | 217° |
| 2026-04-28 03:44 | -18.56229 | 176.73434 | 24187 ft | 456 kts | 217° |
| 2026-04-28 03:44 | -18.58839 | 176.71519 | 24554 ft | 458 kts | 217° |
| 2026-04-28 03:45 | -18.61458 | 176.69597 | 24947 ft | 460 kts | 217° |
| 2026-04-28 03:45 | -18.64059 | 176.67688 | 25347 ft | 462 kts | 217° |
| 2026-04-28 03:45 | -18.66705 | 176.65745 | 25761 ft | 465 kts | 217° |
| 2026-04-28 03:45 | -18.69364 | 176.63792 | 26181 ft | 467 kts | 217° |
| 2026-04-28 03:46 | -18.72042 | 176.61824 | 26640 ft | 470 kts | 217° |
| 2026-04-28 03:46 | -18.74735 | 176.59843 | 27079 ft | 473 kts | 217° |
| 2026-04-28 03:46 | -18.77433 | 176.57860 | 27564 ft | 475 kts | 217° |
| 2026-04-28 03:46 | -18.80147 | 176.55863 | 28019 ft | 477 kts | 217° |
| 2026-04-28 03:47 | -18.82877 | 176.53853 | 28441 ft | 480 kts | 217° |
| 2026-04-28 03:47 | -18.85625 | 176.51829 | 28847 ft | 483 kts | 217° |
| 2026-04-28 03:47 | -18.88392 | 176.49791 | 29263 ft | 486 kts | 217° |
| 2026-04-28 03:47 | -18.91166 | 176.47746 | 29664 ft | 489 kts | 217° |
| 2026-04-28 03:48 | -18.93962 | 176.45685 | 30038 ft | 491 kts | 217° |
| 2026-04-28 03:48 | -18.96775 | 176.43610 | 30364 ft | 494 kts | 217° |
| 2026-04-28 03:48 | -18.99596 | 176.41529 | 30689 ft | 496 kts | 217° |
| 2026-04-28 03:48 | -19.02430 | 176.39438 | 30998 ft | 498 kts | 217° |
| 2026-04-28 03:49 | -19.05279 | 176.37338 | 31315 ft | 500 kts | 217° |
| 2026-04-28 03:49 | -19.08133 | 176.35223 | 31626 ft | 502 kts | 217° |
| 2026-04-28 03:49 | -19.10990 | 176.33099 | 31945 ft | 503 kts | 218° |
| 2026-04-28 03:49 | -19.13852 | 176.30967 | 32235 ft | 504 kts | 218° |
| 2026-04-28 03:50 | -19.16724 | 176.28828 | 32549 ft | 505 kts | 218° |
| 2026-04-28 03:50 | -19.19594 | 176.26692 | 32959 ft | 504 kts | 218° |
| 2026-04-28 03:50 | -19.22454 | 176.24565 | 33384 ft | 502 kts | 218° |
| 2026-04-28 03:50 | -19.25311 | 176.22439 | 33782 ft | 501 kts | 218° |
| 2026-04-28 03:51 | -19.28117 | 176.20351 | 34139 ft | 499 kts | 218° |
| 2026-04-28 03:51 | -19.30991 | 176.18211 | 34504 ft | 498 kts | 218° |
| 2026-04-28 03:51 | -19.33778 | 176.16135 | 34851 ft | 496 kts | 218° |
| 2026-04-28 03:51 | -19.36593 | 176.14037 | 35200 ft | 494 kts | 218° |
| 2026-04-28 03:52 | -19.39398 | 176.11945 | 35542 ft | 492 kts | 218° |
| 2026-04-28 03:52 | -19.42196 | 176.09858 | 35888 ft | 491 kts | 218° |
| 2026-04-28 03:52 | -19.44971 | 176.07787 | 36357 ft | 485 kts | 219° |
| 2026-04-28 03:52 | -19.47720 | 176.05736 | 36771 ft | 482 kts | 219° |
| 2026-04-28 03:53 | -19.50461 | 176.03688 | 37092 ft | 481 kts | 219° |
| 2026-04-28 03:53 | -19.53191 | 176.01648 | 37404 ft | 480 kts | 219° |
| 2026-04-28 03:53 | -19.55912 | 175.99613 | 37705 ft | 478 kts | 219° |
| 2026-04-28 03:53 | -19.58627 | 175.97582 | 38001 ft | 477 kts | 219° |
| 2026-04-28 03:54 | -19.61333 | 175.95557 | 38294 ft | 475 kts | 219° |
| 2026-04-28 03:54 | -19.64030 | 175.93538 | 38572 ft | 474 kts | 219° |
| 2026-04-28 03:54 | -19.66718 | 175.91525 | 38804 ft | 473 kts | 219° |
| 2026-04-28 03:54 | -19.69404 | 175.89513 | 39020 ft | 472 kts | 219° |
| 2026-04-28 03:55 | -19.72087 | 175.87502 | 39212 ft | 471 kts | 219° |
| 2026-04-28 03:55 | -19.74758 | 175.85499 | 39410 ft | 470 kts | 219° |
| 2026-04-28 03:55 | -19.77430 | 175.83502 | 39653 ft | 468 kts | 219° |
| 2026-04-28 03:55 | -19.80083 | 175.81515 | 39883 ft | 466 kts | 219° |
| 2026-04-28 03:56 | -19.85381 | 175.77531 | 39948 ft | 466 kts | 219° |
| 2026-04-28 03:56 | -19.90678 | 175.73543 | 39949 ft | 466 kts | 219° |
| 2026-04-28 03:57 | -19.95975 | 175.69557 | 39949 ft | 467 kts | 219° |
| 2026-04-28 03:57 | -20.01272 | 175.65569 | 39950 ft | 467 kts | 219° |
| 2026-04-28 03:58 | -20.06570 | 175.61577 | 39952 ft | 467 kts | 219° |
| 2026-04-28 03:58 | -20.10971 | 175.58259 | 39952 ft | 466 kts | 220° |
| 2026-04-28 03:59 | -20.16267 | 175.54262 | 39955 ft | 466 kts | 220° |
| 2026-04-28 03:59 | -20.21553 | 175.50270 | 39955 ft | 466 kts | 220° |
| 2026-04-28 04:00 | -20.26842 | 175.46271 | 39960 ft | 466 kts | 220° |
| 2026-04-28 04:00 | -20.32134 | 175.42268 | 39960 ft | 466 kts | 220° |
| 2026-04-28 04:01 | -20.37418 | 175.38267 | 39957 ft | 466 kts | 220° |
| 2026-04-28 04:01 | -20.42709 | 175.34257 | 39967 ft | 466 kts | 220° |
| 2026-04-28 04:02 | -20.47995 | 175.30248 | 39960 ft | 466 kts | 220° |
| 2026-04-28 04:02 | -20.53240 | 175.26266 | 39961 ft | 466 kts | 220° |
| 2026-04-28 04:03 | -20.58521 | 175.22253 | 39966 ft | 466 kts | 220° |
| 2026-04-28 04:03 | -20.63801 | 175.18238 | 39965 ft | 466 kts | 220° |
| 2026-04-28 04:04 | -20.69081 | 175.14219 | 39969 ft | 466 kts | 220° |
| 2026-04-28 04:04 | -20.74363 | 175.10195 | 39977 ft | 466 kts | 221° |
| 2026-04-28 04:05 | -20.79632 | 175.06178 | 39968 ft | 465 kts | 221° |
| 2026-04-28 04:05 | -20.84900 | 175.02158 | 39974 ft | 465 kts | 221° |
| 2026-04-28 04:06 | -20.90168 | 174.98133 | 39975 ft | 466 kts | 221° |
| 2026-04-28 04:06 | -20.95440 | 174.94102 | 39977 ft | 466 kts | 221° |
| 2026-04-28 04:07 | -21.00712 | 174.90069 | 39974 ft | 466 kts | 221° |
| 2026-04-28 04:07 | -21.05986 | 174.86030 | 39975 ft | 466 kts | 221° |
| 2026-04-28 04:08 | -21.11257 | 174.81990 | 39977 ft | 466 kts | 221° |
| 2026-04-28 04:08 | -21.16525 | 174.77948 | 39980 ft | 466 kts | 221° |
| 2026-04-28 04:09 | -21.21794 | 174.73902 | 39979 ft | 466 kts | 221° |
| 2026-04-28 04:09 | -21.27058 | 174.69855 | 39979 ft | 466 kts | 221° |
| 2026-04-28 04:10 | -21.32325 | 174.65804 | 39987 ft | 466 kts | 221° |
| 2026-04-28 04:10 | -21.37585 | 174.61755 | 39982 ft | 465 kts | 221° |
| 2026-04-28 04:11 | -21.42810 | 174.57728 | 39982 ft | 465 kts | 221° |
| 2026-04-28 04:11 | -21.48069 | 174.53671 | 39985 ft | 465 kts | 221° |
| 2026-04-28 04:12 | -21.53322 | 174.49615 | 39985 ft | 465 kts | 221° |
| 2026-04-28 04:12 | -21.58583 | 174.45549 | 39985 ft | 465 kts | 221° |
| 2026-04-28 04:13 | -21.63839 | 174.41484 | 39985 ft | 465 kts | 221° |
| 2026-04-28 04:13 | -21.69092 | 174.37417 | 39985 ft | 465 kts | 221° |
| 2026-04-28 04:14 | -21.74343 | 174.33349 | 39986 ft | 465 kts | 222° |
| 2026-04-28 04:14 | -21.79585 | 174.29283 | 39987 ft | 465 kts | 222° |
| 2026-04-28 04:15 | -21.84833 | 174.25208 | 39989 ft | 466 kts | 222° |
| 2026-04-28 04:16 | -21.92734 | 174.19066 | 39991 ft | 467 kts | 222° |
| 2026-04-28 04:16 | -21.98005 | 174.14966 | 39990 ft | 467 kts | 222° |
| 2026-04-28 04:17 | -22.03272 | 174.10865 | 40004 ft | 467 kts | 222° |
| 2026-04-28 04:17 | -22.08525 | 174.06772 | 39991 ft | 465 kts | 222° |
| 2026-04-28 04:18 | -22.13772 | 174.02682 | 39994 ft | 465 kts | 222° |
| 2026-04-28 04:18 | -22.18993 | 173.98602 | 39994 ft | 465 kts | 222° |
| 2026-04-28 04:19 | -22.24228 | 173.94509 | 39994 ft | 465 kts | 222° |
| 2026-04-28 04:19 | -22.29468 | 173.90410 | 39995 ft | 465 kts | 222° |
| 2026-04-28 04:20 | -22.34716 | 173.86300 | 40008 ft | 468 kts | 223° |
| 2026-04-28 04:20 | -22.39931 | 173.82212 | 40000 ft | 469 kts | 223° |
| 2026-04-28 04:21 | -22.45172 | 173.78102 | 39995 ft | 469 kts | 223° |
| 2026-04-28 04:21 | -22.50489 | 173.73929 | 40002 ft | 469 kts | 223° |
| 2026-04-28 04:22 | -22.55726 | 173.69814 | 40001 ft | 469 kts | 223° |
| 2026-04-28 04:22 | -22.61001 | 173.65664 | 40005 ft | 469 kts | 223° |
| 2026-04-28 04:23 | -22.66276 | 173.61510 | 40012 ft | 469 kts | 223° |
| 2026-04-28 04:23 | -22.71543 | 173.57360 | 40002 ft | 468 kts | 223° |
| 2026-04-28 04:24 | -22.76798 | 173.53213 | 40015 ft | 467 kts | 223° |
| 2026-04-28 04:24 | -22.82060 | 173.49056 | 40002 ft | 468 kts | 223° |
| 2026-04-28 04:25 | -22.87324 | 173.44895 | 40019 ft | 468 kts | 223° |
| 2026-04-28 04:25 | -22.92586 | 173.40731 | 40009 ft | 468 kts | 223° |
| 2026-04-28 04:26 | -22.97848 | 173.36563 | 40022 ft | 468 kts | 224° |
| 2026-04-28 04:26 | -23.03103 | 173.32399 | 40017 ft | 467 kts | 224° |
| 2026-04-28 04:27 | -23.08348 | 173.28236 | 40011 ft | 467 kts | 224° |
| 2026-04-28 04:27 | -23.13590 | 173.24071 | 40010 ft | 467 kts | 224° |
| 2026-04-28 04:28 | -23.18834 | 173.19901 | 40012 ft | 467 kts | 224° |
| 2026-04-28 04:28 | -23.24072 | 173.15731 | 40016 ft | 467 kts | 224° |
| 2026-04-28 04:29 | -23.29314 | 173.11554 | 40028 ft | 467 kts | 224° |
| 2026-04-28 04:29 | -23.34551 | 173.07378 | 40015 ft | 466 kts | 224° |
| 2026-04-28 04:30 | -23.39772 | 173.03210 | 40017 ft | 466 kts | 224° |
| 2026-04-28 04:30 | -23.45011 | 172.99023 | 40018 ft | 466 kts | 224° |
| 2026-04-28 04:31 | -23.50241 | 172.94838 | 40021 ft | 466 kts | 224° |
| 2026-04-28 04:31 | -23.55463 | 172.90656 | 40024 ft | 466 kts | 224° |
| 2026-04-28 04:32 | -23.60687 | 172.86469 | 40030 ft | 465 kts | 224° |
| 2026-04-28 04:32 | -23.65896 | 172.82291 | 40026 ft | 464 kts | 225° |
| 2026-04-28 04:33 | -23.71058 | 172.78144 | 40020 ft | 464 kts | 225° |
| 2026-04-28 04:33 | -23.76251 | 172.73968 | 40024 ft | 464 kts | 225° |
| 2026-04-28 04:34 | -23.81443 | 172.69788 | 40024 ft | 464 kts | 225° |
| 2026-04-28 04:34 | -23.86634 | 172.65606 | 40027 ft | 464 kts | 225° |
| 2026-04-28 04:35 | -23.91821 | 172.61424 | 40033 ft | 462 kts | 225° |
| 2026-04-28 04:35 | -23.96984 | 172.57258 | 40031 ft | 461 kts | 225° |
| 2026-04-28 04:36 | -24.02135 | 172.53095 | 40031 ft | 460 kts | 225° |
| 2026-04-28 04:36 | -24.07283 | 172.48928 | 40027 ft | 460 kts | 225° |
| 2026-04-28 04:37 | -24.12431 | 172.44759 | 40030 ft | 460 kts | 225° |
| 2026-04-28 04:37 | -24.17574 | 172.40590 | 40037 ft | 460 kts | 225° |
| 2026-04-28 04:38 | -24.22731 | 172.36404 | 40035 ft | 461 kts | 226° |
| 2026-04-28 04:38 | -24.27884 | 172.32220 | 40037 ft | 461 kts | 226° |
| 2026-04-28 04:39 | -24.33033 | 172.28033 | 40041 ft | 461 kts | 226° |
| 2026-04-28 04:39 | -24.38183 | 172.23841 | 40039 ft | 461 kts | 226° |
| 2026-04-28 04:40 | -24.43327 | 172.19649 | 40039 ft | 461 kts | 226° |
| 2026-04-28 04:40 | -24.48476 | 172.15449 | 40042 ft | 461 kts | 226° |
| 2026-04-28 04:41 | -24.53620 | 172.11249 | 40045 ft | 461 kts | 226° |
| 2026-04-28 04:41 | -24.58761 | 172.07047 | 40042 ft | 461 kts | 226° |
| 2026-04-28 04:42 | -24.63866 | 172.02870 | 40056 ft | 461 kts | 226° |
| 2026-04-28 04:42 | -24.69005 | 171.98662 | 40042 ft | 460 kts | 226° |
| 2026-04-28 04:43 | -24.74140 | 171.94451 | 40042 ft | 460 kts | 226° |
| 2026-04-28 04:43 | -24.79267 | 171.90242 | 40057 ft | 460 kts | 226° |
| 2026-04-28 04:44 | -24.83524 | 171.86747 | 40048 ft | 458 kts | 226° |
| 2026-04-28 04:44 | -24.88627 | 171.82552 | 40042 ft | 458 kts | 226° |
| 2026-04-28 04:45 | -24.93726 | 171.78352 | 40045 ft | 457 kts | 226° |
| 2026-04-28 04:45 | -24.98823 | 171.74151 | 40047 ft | 457 kts | 226° |
| 2026-04-28 04:46 | -25.03855 | 171.69883 | 40049 ft | 454 kts | 229° |
| 2026-04-28 04:46 | -25.08732 | 171.65452 | 40055 ft | 453 kts | 229° |
| 2026-04-28 04:47 | -25.13593 | 171.61014 | 40050 ft | 454 kts | 230° |
| 2026-04-28 04:47 | -25.18487 | 171.56590 | 40050 ft | 455 kts | 229° |
| 2026-04-28 04:48 | -25.23390 | 171.52178 | 40053 ft | 455 kts | 229° |
| 2026-04-28 04:48 | -25.28294 | 171.47767 | 40056 ft | 455 kts | 229° |
| 2026-04-28 04:49 | -25.33194 | 171.43353 | 40056 ft | 454 kts | 229° |
| 2026-04-28 04:49 | -25.38093 | 171.38932 | 40056 ft | 454 kts | 229° |
| 2026-04-28 04:50 | -25.42991 | 171.34509 | 40058 ft | 454 kts | 230° |
| 2026-04-28 04:50 | -25.47847 | 171.30118 | 40059 ft | 453 kts | 230° |
| 2026-04-28 04:51 | -25.52730 | 171.25697 | 40065 ft | 454 kts | 230° |
| 2026-04-28 04:51 | -25.57647 | 171.21239 | 40070 ft | 454 kts | 230° |
| 2026-04-28 04:52 | -25.62505 | 171.16833 | 40063 ft | 454 kts | 230° |
| 2026-04-28 04:52 | -25.67391 | 171.12395 | 40068 ft | 454 kts | 230° |
| 2026-04-28 04:53 | -25.72274 | 171.07957 | 40067 ft | 453 kts | 230° |
| 2026-04-28 04:53 | -25.77145 | 171.03524 | 40072 ft | 453 kts | 230° |
| 2026-04-28 04:54 | -25.82016 | 170.99085 | 40072 ft | 453 kts | 230° |
| 2026-04-28 04:54 | -25.86888 | 170.94639 | 40072 ft | 453 kts | 230° |
| 2026-04-28 04:55 | -25.91754 | 170.90196 | 40086 ft | 453 kts | 231° |
| 2026-04-28 04:55 | -25.96622 | 170.85746 | 40075 ft | 453 kts | 231° |
| 2026-04-28 04:56 | -26.01480 | 170.81302 | 40080 ft | 452 kts | 231° |
| 2026-04-28 04:56 | -26.06325 | 170.76863 | 40078 ft | 451 kts | 231° |
| 2026-04-28 04:57 | -26.11160 | 170.72427 | 40076 ft | 451 kts | 231° |
| 2026-04-28 04:57 | -26.15967 | 170.68012 | 40078 ft | 451 kts | 231° |
| 2026-04-28 04:58 | -26.20833 | 170.63538 | 40091 ft | 451 kts | 231° |
| 2026-04-28 04:58 | -26.25665 | 170.59091 | 40112 ft | 451 kts | 231° |
| 2026-04-28 04:59 | -26.30454 | 170.54682 | 40086 ft | 448 kts | 231° |
| 2026-04-28 04:59 | -26.35259 | 170.50250 | 40086 ft | 448 kts | 231° |
| 2026-04-28 05:00 | -26.40062 | 170.45812 | 40088 ft | 448 kts | 231° |
| 2026-04-28 05:00 | -26.44868 | 170.41368 | 40100 ft | 449 kts | 231° |
| 2026-04-28 05:01 | -26.49669 | 170.36925 | 40098 ft | 448 kts | 231° |
| 2026-04-28 05:01 | -26.54472 | 170.32475 | 40132 ft | 449 kts | 232° |
| 2026-04-28 05:02 | -26.59265 | 170.28032 | 40099 ft | 447 kts | 232° |
| 2026-04-28 05:02 | -26.64057 | 170.23582 | 40101 ft | 447 kts | 232° |
| 2026-04-28 05:03 | -26.68840 | 170.19134 | 40102 ft | 447 kts | 232° |
| 2026-04-28 05:03 | -26.73620 | 170.14684 | 40100 ft | 448 kts | 232° |
| 2026-04-28 05:04 | -26.78377 | 170.10249 | 40105 ft | 449 kts | 232° |
| 2026-04-28 05:04 | -26.83210 | 170.05742 | 40132 ft | 449 kts | 232° |
| 2026-04-28 05:05 | -26.88004 | 170.01268 | 40109 ft | 449 kts | 232° |
| 2026-04-28 05:05 | -26.92765 | 169.96817 | 40111 ft | 448 kts | 232° |
| 2026-04-28 05:06 | -26.97554 | 169.92334 | 40111 ft | 448 kts | 232° |
| 2026-04-28 05:06 | -27.02341 | 169.87848 | 40118 ft | 448 kts | 232° |
| 2026-04-28 05:07 | -27.07129 | 169.83357 | 40112 ft | 448 kts | 232° |
| 2026-04-28 05:07 | -27.11916 | 169.78861 | 40143 ft | 448 kts | 233° |
| 2026-04-28 05:08 | -27.16692 | 169.74372 | 40121 ft | 447 kts | 233° |
| 2026-04-28 05:08 | -27.21454 | 169.69888 | 40121 ft | 447 kts | 233° |
| 2026-04-28 05:09 | -27.26216 | 169.65399 | 40125 ft | 447 kts | 233° |
| 2026-04-28 05:09 | -27.30950 | 169.60931 | 40124 ft | 447 kts | 233° |
| 2026-04-28 05:10 | -27.35710 | 169.56435 | 40125 ft | 447 kts | 233° |
| 2026-04-28 05:10 | -27.40469 | 169.51935 | 40127 ft | 447 kts | 233° |
| 2026-04-28 05:11 | -27.45222 | 169.47434 | 40132 ft | 447 kts | 233° |
| 2026-04-28 05:11 | -27.49976 | 169.42927 | 40132 ft | 447 kts | 233° |
| 2026-04-28 05:12 | -27.54730 | 169.38415 | 40132 ft | 447 kts | 233° |
| 2026-04-28 05:12 | -27.59491 | 169.33890 | 40132 ft | 447 kts | 233° |
| 2026-04-28 05:13 | -27.64242 | 169.29371 | 40132 ft | 447 kts | 233° |
| 2026-04-28 05:13 | -27.68990 | 169.24852 | 40142 ft | 445 kts | 234° |
| 2026-04-28 05:14 | -27.73687 | 169.20375 | 40139 ft | 445 kts | 234° |
| 2026-04-28 05:14 | -27.78443 | 169.15833 | 40143 ft | 445 kts | 234° |
| 2026-04-28 05:15 | -27.83165 | 169.11318 | 40144 ft | 445 kts | 234° |
| 2026-04-28 05:15 | -27.87883 | 169.06802 | 40146 ft | 444 kts | 234° |
| 2026-04-28 05:16 | -27.92602 | 169.02281 | 40151 ft | 444 kts | 234° |
| 2026-04-28 05:16 | -27.97284 | 168.97793 | 40145 ft | 443 kts | 234° |
| 2026-04-28 05:17 | -28.04330 | 168.91023 | 40148 ft | 443 kts | 234° |
| 2026-04-28 05:17 | -28.08729 | 168.86791 | 40148 ft | 443 kts | 234° |
| 2026-04-28 05:18 | -28.13422 | 168.82270 | 40154 ft | 443 kts | 234° |
| 2026-04-28 05:18 | -28.18114 | 168.77745 | 40154 ft | 443 kts | 234° |
| 2026-04-28 05:19 | -28.19812 | 168.76106 | 40155 ft | 443 kts | 234° |
| 2026-04-28 05:19 | -28.23013 | 168.73016 | 40161 ft | 442 kts | 234° |
| 2026-04-28 05:20 | -28.27696 | 168.68490 | 40170 ft | 442 kts | 235° |
| 2026-04-28 05:20 | -28.32387 | 168.63946 | 40165 ft | 444 kts | 234° |
| 2026-04-28 05:21 | -28.37082 | 168.59397 | 40162 ft | 444 kts | 234° |
| 2026-04-28 05:21 | -28.41778 | 168.54842 | 40167 ft | 444 kts | 235° |
| 2026-04-28 05:22 | -28.46476 | 168.50281 | 40165 ft | 444 kts | 235° |
| 2026-04-28 05:22 | -28.51166 | 168.45722 | 40165 ft | 443 kts | 235° |
| 2026-04-28 05:23 | -28.55849 | 168.41163 | 40172 ft | 443 kts | 235° |
| 2026-04-28 05:23 | -28.60523 | 168.36605 | 40173 ft | 443 kts | 235° |
| 2026-04-28 05:24 | -28.65199 | 168.32041 | 40179 ft | 443 kts | 235° |
| 2026-04-28 05:24 | -28.69877 | 168.27467 | 40172 ft | 444 kts | 235° |
| 2026-04-28 05:25 | -28.74565 | 168.22879 | 40198 ft | 444 kts | 235° |
| 2026-04-28 05:25 | -28.79254 | 168.18288 | 40181 ft | 444 kts | 235° |
| 2026-04-28 05:26 | -28.83933 | 168.13700 | 40183 ft | 444 kts | 235° |
| 2026-04-28 05:26 | -28.88620 | 168.09097 | 40185 ft | 444 kts | 235° |
| 2026-04-28 05:27 | -28.93265 | 168.04530 | 40184 ft | 444 kts | 235° |
| 2026-04-28 05:27 | -28.97943 | 167.99926 | 40185 ft | 444 kts | 235° |
| 2026-04-28 05:28 | -29.02429 | 167.95176 | 40194 ft | 430 kts | 242° |
| 2026-04-28 05:28 | -29.05686 | 167.89705 | 40183 ft | 406 kts | 255° |
| 2026-04-28 05:29 | -29.07463 | 167.84769 | 40184 ft | 399 kts | 260° |
| 2026-04-28 05:29 | -29.09335 | 167.78811 | 40195 ft | 398 kts | 261° |
| 2026-04-28 05:30 | -29.11167 | 167.72840 | 40198 ft | 398 kts | 261° |
| 2026-04-28 05:30 | -29.13015 | 167.66876 | 40197 ft | 398 kts | 261° |
| 2026-04-28 05:31 | -29.14874 | 167.60918 | 40203 ft | 398 kts | 261° |
| 2026-04-28 05:31 | -29.16737 | 167.54951 | 40205 ft | 399 kts | 261° |
| 2026-04-28 05:32 | -29.18602 | 167.48964 | 40203 ft | 400 kts | 261° |
| 2026-04-28 05:32 | -29.20442 | 167.43052 | 40203 ft | 400 kts | 261° |
| 2026-04-28 05:33 | -29.22045 | 167.37892 | 40203 ft | 400 kts | 261° |